createdAt,value
2018-02-12T00:01:57.229Z,45.27
2018-02-12T00:04:28.330Z,44.90
2018-02-12T00:06:58.778Z,44.90
2018-02-12T00:09:29.146Z,48.73
2018-02-12T00:11:59.777Z,47.83
2018-02-12T00:14:30.216Z,45.50
2018-02-12T00:17:00.672Z,58.30
2018-02-12T00:19:31.110Z,52.87
2018-02-12T00:22:01.498Z,51.17
2018-02-12T00:24:32.320Z,46.77
2018-02-12T00:27:02.750Z,46.10
2018-02-12T00:29:33.378Z,49.67
2018-02-12T00:32:03.818Z,48.00
2018-02-12T00:34:34.160Z,53.03
2018-02-12T00:37:04.622Z,52.03
2018-02-12T00:39:35.804Z,44.77
2018-02-12T00:42:06.512Z,49.20
2018-02-12T00:44:37.676Z,49.70
2018-02-12T00:47:08.054Z,48.80
2018-02-12T00:49:38.437Z,56.47
2018-02-12T00:52:08.766Z,48.97
2018-02-12T00:54:39.241Z,51.27
2018-02-12T00:57:10.394Z,54.03
2018-02-12T00:59:42.030Z,47.23
2018-02-12T01:02:12.581Z,43.40
2018-02-12T01:04:43.722Z,52.93
2018-02-12T01:07:14.859Z,47.90
2018-02-12T01:09:46.027Z,41.43
2018-02-12T01:12:17.425Z,57.37
2018-02-12T01:14:47.820Z,49.73
2018-02-12T01:17:18.211Z,46.73
2018-02-12T01:19:49.377Z,53.53
2018-02-12T01:22:19.778Z,54.10
2018-02-12T01:24:50.932Z,39.10
2018-02-12T01:27:21.389Z,47.33
2018-02-12T01:29:52.226Z,42.40
2018-02-12T01:32:22.616Z,47.03
2018-02-12T01:34:53.035Z,51.47
2018-02-12T01:37:24.142Z,40.83
2018-02-12T01:39:54.514Z,40.60
2018-02-12T01:42:25.998Z,49.63
2018-02-12T01:44:56.381Z,43.80
2018-02-12T01:47:28.054Z,40.97
2018-02-12T01:50:08.953Z,44.80
2018-02-12T01:52:39.285Z,43.37
2018-02-12T01:55:09.778Z,42.23
2018-02-12T01:57:40.243Z,38.83
2018-02-12T02:00:10.817Z,39.70
2018-02-12T02:02:41.902Z,41.53
2018-02-12T02:05:12.326Z,49.30
2018-02-12T02:07:42.742Z,44.23
2018-02-12T02:10:13.102Z,44.20
2018-02-12T02:12:43.822Z,44.00
2018-02-12T02:15:14.191Z,41.43
2018-02-12T02:17:45.486Z,38.50
2018-02-12T02:20:15.869Z,44.30
2018-02-12T02:22:47.042Z,48.13
2018-02-12T02:25:17.425Z,45.60
2018-02-12T02:27:47.862Z,48.20
2018-02-12T02:30:19.181Z,41.07
2018-02-12T02:32:49.582Z,39.83
2018-02-12T02:35:20.038Z,41.57
2018-02-12T02:37:50.377Z,34.97
2018-02-12T02:40:21.505Z,39.93
2018-02-12T02:42:52.384Z,38.50
2018-02-12T02:45:22.829Z,39.43
2018-02-12T02:47:53.701Z,43.33
2018-02-12T02:50:24.069Z,36.77
2018-02-12T02:52:54.490Z,39.23
2018-02-12T02:55:25.657Z,35.53
2018-02-12T02:57:56.342Z,35.83
2018-02-12T03:00:27.050Z,34.60
2018-02-12T03:02:57.534Z,35.67
2018-02-12T03:05:27.972Z,40.40
2018-02-12T03:07:59.170Z,43.83
2018-02-12T03:10:29.606Z,38.03
2018-02-12T03:13:01.179Z,38.07
2018-02-12T03:15:32.386Z,33.17
2018-02-12T03:18:03.514Z,33.00
2018-02-12T03:20:33.882Z,35.03
2018-02-12T03:23:05.019Z,38.33
2018-02-12T03:25:36.173Z,31.37
2018-02-12T03:28:07.323Z,28.43
2018-02-12T03:30:37.982Z,35.10
2018-02-12T03:33:08.401Z,45.23
2018-02-12T03:35:39.000Z,29.17
2018-02-12T03:38:10.103Z,31.27
2018-02-12T03:40:40.531Z,36.50
2018-02-12T03:43:10.849Z,26.93
2018-02-12T03:45:57.694Z,29.13
2018-02-12T03:48:28.555Z,26.20
2018-02-12T03:50:59.301Z,30.37
2018-02-12T03:53:29.717Z,26.50
2018-02-12T03:56:00.186Z,21.00
2018-02-12T03:58:30.615Z,20.63
2018-02-12T04:01:02.653Z,21.50
2018-02-12T04:03:33.086Z,18.33
2018-02-12T04:06:03.468Z,16.43
2018-02-12T04:08:34.636Z,18.53
2018-02-12T04:11:05.011Z,28.63
2018-02-12T04:13:36.590Z,17.00
2018-02-12T04:16:07.778Z,21.73
2018-02-12T04:18:38.500Z,18.50
2018-02-12T04:21:08.933Z,15.67
2018-02-12T04:23:39.365Z,19.33
2018-02-12T04:26:10.015Z,14.00
2018-02-12T04:28:40.450Z,19.43
2018-02-12T04:31:11.310Z,16.60
2018-02-12T04:33:42.474Z,23.50
2018-02-12T04:36:13.752Z,17.93
2018-02-12T04:38:44.101Z,25.23
2018-02-12T04:41:14.507Z,16.63
2018-02-12T04:43:44.967Z,18.50
2018-02-12T04:46:15.368Z,17.00
2018-02-12T04:48:46.107Z,15.33
2018-02-12T04:51:17.758Z,20.90
2018-02-12T04:53:48.106Z,24.03
2018-02-12T04:56:18.493Z,16.27
2018-02-12T04:58:48.910Z,16.10
2018-02-12T05:01:19.518Z,15.87
2018-02-12T05:03:50.776Z,20.60
2018-02-12T05:06:21.307Z,16.90
2018-02-12T05:08:52.474Z,16.60
2018-02-12T05:11:22.832Z,18.50
2018-02-12T05:13:53.249Z,16.57
2018-02-12T05:16:23.640Z,18.20
2018-02-12T05:18:54.297Z,18.73
2018-02-12T05:21:24.738Z,20.07
2018-02-12T05:23:55.110Z,20.83
2018-02-12T05:26:25.852Z,19.10
2018-02-12T05:28:56.237Z,22.53
2018-02-12T05:31:26.666Z,22.20
2018-02-12T05:33:57.857Z,18.07
2018-02-12T05:36:29.637Z,17.87
2018-02-12T05:39:00.262Z,24.53
2018-02-12T05:41:30.630Z,20.50
2018-02-12T05:44:03.757Z,24.70
2018-02-12T05:46:34.149Z,18.43
2018-02-12T05:49:06.176Z,23.00
2018-02-12T05:51:36.614Z,20.70
2018-02-12T05:54:07.024Z,19.77
2018-02-12T05:56:37.474Z,20.43
2018-02-12T05:59:07.863Z,21.30
2018-02-12T06:01:38.296Z,21.43
2018-02-12T06:04:08.633Z,23.73
2018-02-12T06:06:39.442Z,18.30
2018-02-12T06:09:09.838Z,33.23
2018-02-12T06:11:40.201Z,18.77
2018-02-12T06:14:10.583Z,18.97
2018-02-12T06:16:41.699Z,25.37
2018-02-12T06:19:12.229Z,17.43
2018-02-12T06:21:42.573Z,18.40
2018-02-12T06:24:14.045Z,24.07
2018-02-12T06:26:44.792Z,19.40
2018-02-12T06:29:15.163Z,20.13
2018-02-12T06:31:45.591Z,18.10
2018-02-12T06:34:16.010Z,20.43
2018-02-12T06:36:46.502Z,18.10
2018-02-12T06:39:16.879Z,20.80
2018-02-12T06:41:48.053Z,23.03
2018-02-12T06:44:18.403Z,22.37
2018-02-12T06:46:48.839Z,24.30
2018-02-12T06:49:19.253Z,21.37
2018-02-12T06:51:49.680Z,25.83
2018-02-12T06:54:21.257Z,19.00
2018-02-12T06:56:51.613Z,18.00
2018-02-12T06:59:22.862Z,17.70
2018-02-12T07:01:54.103Z,21.20
2018-02-12T07:04:25.299Z,19.50
2018-02-12T07:06:57.597Z,20.80
2018-02-12T07:09:28.086Z,18.60
2018-02-12T07:11:58.794Z,22.40
2018-02-12T07:14:29.213Z,19.53
2018-02-12T07:17:00.382Z,18.57
2018-02-12T07:19:30.822Z,19.60
2018-02-12T07:22:01.223Z,17.47
2018-02-12T07:24:32.243Z,25.33
2018-02-12T07:27:03.421Z,18.70
2018-02-12T07:29:33.762Z,25.50
2018-02-12T07:32:04.212Z,22.63
2018-02-12T07:34:35.458Z,23.87
2018-02-12T07:37:06.344Z,16.77
2018-02-12T07:39:36.805Z,21.40
2018-02-12T07:42:07.599Z,20.60
2018-02-12T07:44:38.885Z,19.90
2018-02-12T07:47:09.869Z,21.37
2018-02-12T07:49:41.033Z,16.10
2018-02-12T07:52:11.404Z,16.17
2018-02-12T07:54:42.684Z,28.33
2018-02-12T07:57:13.778Z,20.37
2018-02-12T07:59:44.166Z,18.13
2018-02-12T08:02:15.369Z,20.70
2018-02-12T08:04:45.783Z,15.57
2018-02-12T08:07:16.180Z,34.40
2018-02-12T08:09:46.653Z,17.33
2018-02-12T08:12:17.551Z,14.30
2018-02-12T08:14:47.882Z,15.37
2018-02-12T08:17:18.318Z,18.17
2018-02-12T08:19:48.751Z,19.50
2018-02-12T08:22:19.201Z,18.00
2018-02-12T08:24:51.679Z,17.70
2018-02-12T08:27:22.158Z,17.70
2018-02-12T08:29:53.647Z,21.33
2018-02-12T08:32:24.074Z,18.33
2018-02-12T08:34:54.518Z,23.27
2018-02-12T08:37:25.649Z,14.53
2018-02-12T08:39:56.402Z,14.43
2018-02-12T08:42:28.023Z,14.97
2018-02-12T08:44:58.409Z,14.17
2018-02-12T08:47:28.847Z,16.33
2018-02-12T08:49:59.516Z,18.67
2018-02-12T08:52:29.899Z,14.03
2018-02-12T08:55:00.866Z,16.63
2018-02-12T08:57:31.377Z,20.60
2018-02-12T09:00:02.315Z,20.77
2018-02-12T09:02:32.727Z,18.60
2018-02-12T09:05:03.135Z,14.23
2018-02-12T09:07:34.385Z,13.33
2018-02-12T09:10:04.826Z,13.53
2018-02-12T09:12:35.459Z,17.30
2018-02-12T09:15:06.193Z,14.80
2018-02-12T09:17:36.541Z,19.33
2018-02-12T09:20:07.728Z,15.40
2018-02-12T09:22:38.983Z,16.10
2018-02-12T09:25:10.095Z,13.27
2018-02-12T09:27:40.478Z,15.90
2018-02-12T09:30:12.100Z,13.90
2018-02-12T09:32:43.223Z,10.93
2018-02-12T09:35:13.635Z,12.57
2018-02-12T09:37:43.977Z,12.53
2018-02-12T09:40:14.314Z,13.23
2018-02-12T09:42:46.602Z,13.00
2018-02-12T09:45:17.006Z,13.33
2018-02-12T09:47:49.114Z,18.83
2018-02-12T09:50:19.473Z,11.97
2018-02-12T09:52:50.850Z,17.53
2018-02-12T09:55:22.036Z,14.63
2018-02-12T09:57:52.481Z,11.23
2018-02-12T10:00:23.295Z,15.53
2018-02-12T10:02:53.690Z,19.10
2018-02-12T10:05:24.818Z,13.63
2018-02-12T10:07:57.090Z,13.80
2018-02-12T10:10:28.290Z,13.37
2018-02-12T10:12:59.058Z,11.30
2018-02-12T10:15:29.500Z,14.17
2018-02-12T10:18:00.994Z,16.93
2018-02-12T10:20:31.397Z,10.27
2018-02-12T10:23:03.988Z,13.10
2018-02-12T10:25:32.455Z,12.13
2018-02-12T10:28:02.878Z,11.00
2018-02-12T10:30:34.263Z,15.50
2018-02-12T10:33:05.278Z,15.33
2018-02-12T10:35:35.722Z,26.07
2018-02-12T10:38:06.067Z,12.97
2018-02-12T10:40:36.484Z,14.70
2018-02-12T10:43:06.818Z,16.07
2018-02-12T10:45:37.129Z,15.23
2018-02-12T10:48:08.550Z,16.50
2018-02-12T10:50:38.989Z,23.33
2018-02-12T10:53:10.370Z,18.00
2018-02-12T10:55:40.758Z,17.10
2018-02-12T10:58:11.161Z,17.00
2018-02-12T11:00:42.736Z,16.23
2018-02-12T11:03:13.171Z,17.80
2018-02-12T11:05:43.597Z,13.83
2018-02-12T11:08:14.318Z,17.43
2018-02-12T11:10:45.730Z,15.63
2018-02-12T11:13:16.781Z,17.27
2018-02-12T11:15:47.950Z,22.40
2018-02-12T11:18:18.746Z,20.10
2018-02-12T11:20:49.810Z,19.97
2018-02-12T11:23:21.383Z,16.13
2018-02-12T11:25:51.811Z,18.47
2018-02-12T11:28:22.222Z,14.87
2018-02-12T11:30:55.121Z,16.70
2018-02-12T11:33:25.549Z,22.43
2018-02-12T11:35:56.185Z,24.00
2018-02-12T11:38:26.643Z,22.37
2018-02-12T11:40:57.013Z,22.90
2018-02-12T11:43:28.198Z,22.40
2018-02-12T11:45:59.216Z,23.87
2018-02-12T11:48:29.927Z,22.30
2018-02-12T11:51:01.138Z,20.93
2018-02-12T11:53:31.574Z,24.53
2018-02-12T11:56:02.047Z,24.10
2018-02-12T11:58:33.218Z,31.23
2018-02-12T12:01:04.805Z,27.00
2018-02-12T12:03:36.901Z,24.90
2018-02-12T12:06:08.716Z,29.13
2018-02-12T12:08:39.121Z,26.10
2018-02-12T12:11:10.321Z,23.53
2018-02-12T12:13:42.629Z,26.33
2018-02-12T12:16:13.085Z,29.80
2018-02-12T12:18:43.720Z,31.20
2018-02-12T12:21:14.125Z,27.00
2018-02-12T12:23:45.436Z,36.27
2018-02-12T12:26:15.861Z,31.20
2018-02-12T12:28:47.077Z,29.07
2018-02-12T12:31:18.569Z,34.03
2018-02-12T12:33:49.005Z,36.20
2018-02-12T12:36:21.286Z,25.37
2018-02-12T12:38:51.674Z,32.17
2018-02-12T12:41:22.874Z,26.90
2018-02-12T12:43:53.285Z,32.60
2018-02-12T12:46:23.937Z,22.50
2018-02-12T12:48:54.613Z,29.43
2018-02-12T12:51:25.156Z,26.73
2018-02-12T12:53:55.538Z,24.07
2018-02-12T12:56:26.793Z,30.30
2018-02-12T12:58:58.405Z,33.13
2018-02-12T13:01:28.814Z,26.17
2018-02-12T13:03:59.305Z,43.37
2018-02-12T13:06:31.071Z,27.90
2018-02-12T13:09:02.290Z,37.13
2018-02-12T13:11:32.752Z,31.70
2018-02-12T13:14:03.941Z,35.77
2018-02-12T13:16:34.558Z,33.20
2018-02-12T13:19:05.537Z,26.10
2018-02-12T13:21:36.001Z,34.30
2018-02-12T13:24:06.727Z,30.37
2018-02-12T13:26:38.173Z,30.50
2018-02-12T13:29:09.417Z,33.63
2018-02-12T13:31:40.969Z,35.50
2018-02-12T13:34:12.166Z,29.20
2018-02-12T13:36:43.221Z,29.80
2018-02-12T13:39:13.687Z,28.77
2018-02-12T13:41:44.224Z,33.80
2018-02-12T13:44:14.862Z,32.47
2018-02-12T13:46:46.530Z,30.37
2018-02-12T13:49:19.146Z,30.00
2018-02-12T13:51:49.941Z,46.47
2018-02-12T13:54:21.503Z,25.10
2018-02-12T13:56:52.214Z,25.40
2018-02-12T13:59:23.549Z,34.97
2018-02-12T14:01:55.790Z,32.90
2018-02-12T14:04:26.462Z,27.43
2018-02-12T14:06:58.046Z,34.40
2018-02-12T14:09:29.686Z,36.80
2018-02-12T14:12:00.350Z,24.70
2018-02-12T14:14:30.936Z,35.67
2018-02-12T14:17:02.286Z,30.07
2018-02-12T14:19:33.067Z,33.00
2018-02-12T14:22:04.526Z,36.23
2018-02-12T14:24:35.378Z,36.47
2018-02-12T14:27:06.802Z,39.07
2018-02-12T14:29:37.346Z,34.50
2018-02-12T14:32:07.968Z,36.53
2018-02-12T14:34:39.362Z,46.00
2018-02-12T14:37:11.013Z,30.97
2018-02-12T14:39:41.873Z,36.33
2018-02-12T14:42:12.604Z,28.63
2018-02-12T14:44:43.291Z,28.63
2018-02-12T14:47:15.157Z,30.83
2018-02-12T14:49:48.620Z,30.77
2018-02-12T14:52:19.465Z,32.23
2018-02-12T14:54:51.045Z,30.47
2018-02-12T14:57:22.584Z,27.70
2018-02-12T14:59:53.306Z,28.70
2018-02-12T15:02:23.965Z,25.83
2018-02-12T15:04:55.325Z,44.03
2018-02-12T15:07:27.226Z,33.73
2018-02-12T15:09:57.698Z,28.93
2018-02-12T15:12:28.619Z,28.20
2018-02-12T15:15:00.309Z,30.03
2018-02-12T15:17:31.158Z,30.50
2018-02-12T15:20:02.462Z,33.43
2018-02-12T15:22:33.738Z,34.33
2018-02-12T15:25:05.521Z,26.80
2018-02-12T15:27:36.300Z,30.47
2018-02-12T15:30:07.063Z,35.50
2018-02-12T15:32:38.528Z,54.83
2018-02-12T15:35:09.165Z,38.73
2018-02-12T15:37:39.789Z,35.53
2018-02-12T15:40:10.325Z,26.60
2018-02-12T15:42:40.802Z,27.70
2018-02-12T15:45:11.452Z,31.60
2018-02-12T15:47:42.916Z,34.93
2018-02-12T15:50:14.466Z,24.23
2018-02-12T15:52:45.683Z,26.40
2018-02-12T15:55:16.398Z,41.03
2018-02-12T15:57:46.850Z,27.60
2018-02-12T16:00:17.331Z,33.03
2018-02-12T16:02:47.794Z,26.57
2018-02-12T16:05:18.331Z,30.50
2018-02-12T16:07:49.301Z,31.60
2018-02-12T16:10:20.531Z,34.80
2018-02-12T16:12:51.802Z,24.57
2018-02-12T16:15:22.231Z,26.23
2018-02-12T16:17:54.335Z,25.13
2018-02-12T16:20:24.774Z,30.60
2018-02-12T16:22:55.233Z,29.67
2018-02-12T16:25:26.872Z,31.50
2018-02-12T16:27:58.049Z,31.43
2018-02-12T16:30:28.446Z,25.27
2018-02-12T16:32:59.686Z,37.83
2018-02-12T16:35:30.858Z,25.27
2018-02-12T16:38:01.674Z,34.27
2018-02-12T16:40:32.804Z,35.53
2018-02-12T16:43:03.391Z,34.20
2018-02-12T16:45:33.756Z,23.20
2018-02-12T16:48:04.208Z,29.63
2018-02-12T16:50:35.357Z,30.20
2018-02-12T16:53:05.775Z,34.07
2018-02-12T16:55:37.433Z,35.53
2018-02-12T16:58:07.885Z,27.13
2018-02-12T17:00:39.545Z,26.53
2018-02-12T17:03:09.936Z,38.83
2018-02-12T17:05:41.075Z,24.57
2018-02-12T17:08:12.657Z,31.23
2018-02-12T17:10:43.099Z,25.27
2018-02-12T17:13:13.910Z,21.77
2018-02-12T17:15:44.316Z,21.50
2018-02-12T17:18:15.492Z,31.50
2018-02-12T17:20:45.961Z,32.80
2018-02-12T17:23:16.387Z,23.07
2018-02-12T17:25:47.079Z,20.10
2018-02-12T17:28:17.486Z,21.60
2018-02-12T17:30:47.976Z,21.00
2018-02-12T17:33:18.394Z,24.50
2018-02-12T17:35:48.749Z,27.33
2018-02-12T17:38:19.897Z,38.07
2018-02-12T17:40:51.099Z,22.10
2018-02-12T17:43:21.814Z,38.40
2018-02-12T17:45:52.279Z,25.77
2018-02-12T17:48:22.678Z,27.53
2018-02-12T17:50:53.062Z,23.63
2018-02-12T17:53:24.206Z,25.67
2018-02-12T17:55:55.641Z,28.57
2018-02-12T17:58:26.826Z,26.13
2018-02-12T18:00:57.539Z,23.43
2018-02-12T18:03:27.898Z,30.00
2018-02-12T18:05:58.302Z,23.23
2018-02-12T18:08:28.743Z,18.13
2018-02-12T18:10:59.159Z,29.30
2018-02-12T18:13:29.798Z,21.80
2018-02-12T18:16:00.223Z,22.10
2018-02-12T18:18:30.601Z,24.97
2018-02-12T18:21:01.873Z,20.37
2018-02-12T18:23:32.291Z,25.13
2018-02-12T18:26:04.088Z,28.50
2018-02-12T18:28:34.529Z,21.50
2018-02-12T18:31:05.330Z,22.43
2018-02-12T18:33:35.758Z,37.70
2018-02-12T18:36:06.098Z,22.53
2018-02-12T18:38:36.537Z,18.87
2018-02-12T18:41:06.956Z,25.90
2018-02-12T18:43:38.442Z,25.40
2018-02-12T18:46:08.892Z,25.57
2018-02-12T18:48:40.095Z,30.40
2018-02-12T18:51:10.615Z,29.83
2018-02-12T18:53:41.097Z,18.17
2018-02-12T18:56:12.736Z,26.83
2018-02-12T18:58:43.947Z,32.33
2018-02-12T19:01:14.601Z,20.90
2018-02-12T19:03:44.997Z,17.40
2018-02-12T19:06:15.482Z,24.83
2018-02-12T19:08:45.840Z,24.93
2018-02-12T19:11:16.297Z,22.83
2018-02-12T19:13:46.922Z,24.83
2018-02-12T19:16:17.318Z,24.43
2018-02-12T19:18:47.791Z,16.93
2018-02-12T19:21:18.289Z,23.67
2018-02-12T19:23:48.643Z,19.97
2018-02-12T19:26:19.401Z,19.43
2018-02-12T19:28:51.314Z,40.63
2018-02-12T19:31:22.217Z,28.80
2018-02-12T19:33:52.595Z,27.57
2018-02-12T19:36:23.048Z,18.67
2018-02-12T19:38:54.285Z,22.07
2018-02-12T19:41:25.532Z,21.40
2018-02-12T19:43:56.988Z,21.00
2018-02-12T19:46:28.186Z,23.37
2018-02-12T19:48:58.663Z,21.07
2018-02-12T19:51:29.886Z,23.30
2018-02-12T19:54:00.354Z,29.77
2018-02-12T19:56:30.704Z,22.60
2018-02-12T19:59:01.374Z,21.60
2018-02-12T20:01:32.951Z,19.20
2018-02-12T20:04:04.129Z,26.37
2018-02-12T20:06:34.518Z,16.97
2018-02-12T20:09:05.952Z,14.63
2018-02-12T20:11:36.385Z,20.07
2018-02-12T20:14:07.898Z,17.80
2018-02-12T20:16:38.346Z,15.90
2018-02-12T20:19:09.074Z,17.93
2018-02-12T20:21:39.426Z,20.90
2018-02-12T20:24:10.570Z,12.40
2018-02-12T20:26:42.262Z,21.10
2018-02-12T20:29:12.683Z,19.43
2018-02-12T20:31:43.426Z,24.53
2018-02-12T20:34:13.839Z,21.37
2018-02-12T20:36:44.206Z,18.47
2018-02-12T20:39:18.229Z,21.23
2018-02-12T20:41:48.615Z,26.90
2018-02-12T20:44:19.378Z,16.07
2018-02-12T20:46:49.796Z,17.70
2018-02-12T20:49:20.635Z,15.93
2018-02-12T20:51:51.014Z,15.23
2018-02-12T20:54:21.956Z,15.97
2018-02-12T20:56:52.377Z,17.07
2018-02-12T20:59:22.809Z,15.47
2018-02-12T21:01:53.796Z,20.90
2018-02-12T21:04:24.301Z,16.50
2018-02-12T21:06:54.685Z,21.13
2018-02-12T21:09:25.921Z,33.20
2018-02-12T21:11:57.030Z,11.63
2018-02-12T21:14:27.397Z,14.90
2018-02-12T21:16:58.606Z,13.97
2018-02-12T21:19:29.330Z,12.67
2018-02-12T21:21:59.716Z,15.50
2018-02-12T21:24:30.079Z,17.70
2018-02-12T21:27:00.585Z,17.63
2018-02-12T21:29:30.984Z,24.77
2018-02-12T21:32:01.627Z,13.37
2018-02-12T21:34:32.067Z,16.53
2018-02-12T21:37:02.623Z,15.00
2018-02-12T21:39:33.083Z,12.47
2018-02-12T21:42:04.457Z,12.43
2018-02-12T21:44:34.912Z,16.23
2018-02-12T21:47:06.143Z,21.27
2018-02-12T21:49:36.961Z,12.80
2018-02-12T21:52:07.420Z,12.70
2018-02-12T21:54:38.294Z,14.23
2018-02-12T21:57:08.718Z,12.20
2018-02-12T21:59:39.161Z,13.20
2018-02-12T22:02:10.807Z,12.90
2018-02-12T22:04:41.247Z,14.93
2018-02-12T22:07:12.647Z,29.93
2018-02-12T22:09:43.061Z,10.97
2018-02-12T22:12:13.442Z,8.47
2018-02-12T22:14:44.583Z,21.80
2018-02-12T22:17:15.765Z,22.33
2018-02-12T22:19:46.474Z,14.10
2018-02-12T22:22:16.875Z,10.40
2018-02-12T22:24:47.262Z,12.27
2018-02-12T22:27:17.704Z,12.30
2018-02-12T22:29:48.093Z,19.70
2018-02-12T22:32:18.518Z,17.37
2018-02-12T22:34:50.061Z,13.20
2018-02-12T22:37:20.878Z,15.83
2018-02-12T22:39:52.047Z,12.40
2018-02-12T22:42:27.718Z,22.27
2018-02-12T22:44:58.166Z,11.47
2018-02-12T22:47:28.580Z,18.53
2018-02-12T22:49:59.165Z,8.10
2018-02-12T22:52:30.322Z,13.80
2018-02-12T22:55:00.741Z,8.77
2018-02-12T22:57:31.967Z,16.13
2018-02-12T23:00:03.163Z,12.10
2018-02-12T23:02:33.569Z,17.83
2018-02-12T23:05:03.936Z,15.07
2018-02-12T23:07:39.998Z,13.43
2018-02-12T23:10:10.414Z,8.17
2018-02-12T23:12:40.821Z,11.80
2018-02-12T23:15:16.253Z,12.40
2018-02-12T23:17:46.637Z,8.43
2018-02-12T23:20:18.146Z,8.17
2018-02-12T23:22:48.594Z,12.83
2018-02-12T23:25:18.978Z,10.47
2018-02-12T23:27:49.497Z,10.93
2018-02-12T23:30:20.084Z,10.57
2018-02-12T23:32:50.945Z,7.60
2018-02-12T23:35:22.378Z,30.07
2018-02-12T23:37:53.257Z,12.53
2018-02-12T23:40:23.664Z,15.30
2018-02-12T23:42:55.046Z,15.77
2018-02-12T23:45:25.438Z,13.03
2018-02-12T23:47:56.521Z,15.47
2018-02-12T23:50:26.947Z,14.80
2018-02-12T23:52:57.370Z,7.40
2018-02-12T23:55:27.840Z,11.70
2018-02-12T23:57:58.210Z,22.13
